Time;durP1;ratioP1;P1;durP2;ratioP2;P2;SDS_P1;SDS_P2;PMS_P1;PMS_P2;Temp;Humidity;BMP_temperature;BMP_pressure;BME280_temperature;BME280_humidity;BME280_pressure;Samples;Min_cycle;Max_cycle;Signal;HPM_P1;HPM_P2
2021/11/06 00:02:24;;;;;;;4.90;2.60;;;6.50;68.80;;;;;;5019684;28;20055;-81
2021/11/06 00:04:50;;;;;;;3.63;2.47;;;6.50;68.90;;;;;;5028077;28;20059;-81
2021/11/06 00:07:16;;;;;;;3.17;2.40;;;6.50;68.80;;;;;;5023631;28;20372;-81
2021/11/06 00:09:42;;;;;;;5.80;2.63;;;6.50;68.80;;;;;;5041380;28;20111;-81
2021/11/06 00:12:08;;;;;;;5.87;3.67;;;6.50;68.80;;;;;;5030641;28;20025;-81
2021/11/06 00:14:34;;;;;;;4.30;2.60;;;6.50;69.00;;;;;;5018542;28;20025;-81
2021/11/06 00:17:00;;;;;;;4.20;2.50;;;6.50;69.00;;;;;;5024595;28;20041;-81
2021/11/06 00:19:26;;;;;;;3.97;2.57;;;6.50;68.70;;;;;;5018911;28;20480;-81
2021/11/06 00:21:52;;;;;;;5.43;1.93;;;6.40;68.60;;;;;;5023419;28;20026;-81
2021/11/06 00:24:19;;;;;;;2.20;1.60;;;6.50;68.80;;;;;;5038459;28;20025;-81
2021/11/06 00:26:49;;;;;;;3.57;1.60;;;6.40;69.20;;;;;;5045077;28;20452;-81
2021/11/06 00:29:16;;;;;;;4.20;1.73;;;6.30;68.90;;;;;;5050458;28;20017;-81
2021/11/06 00:31:42;;;;;;;3.20;1.50;;;6.30;69.00;;;;;;5014833;28;20033;-81
2021/11/06 00:34:08;;;;;;;3.83;1.87;;;6.30;68.70;;;;;;5012562;28;20026;-81
2021/11/06 00:36:34;;;;;;;2.57;1.60;;;6.30;68.50;;;;;;5039291;28;20112;-81
2021/11/06 00:39:00;;;;;;;4.07;2.33;;;6.30;68.60;;;;;;5025320;28;20032;-81
2021/11/06 00:41:26;;;;;;;3.50;2.13;;;6.20;68.70;;;;;;5025273;28;20030;-81
2021/11/06 00:43:51;;;;;;;3.27;2.63;;;6.10;68.90;;;;;;5026289;28;21169;-81
2021/11/06 00:46:17;;;;;;;5.17;2.37;;;6.20;68.90;;;;;;5035854;28;20033;-81
2021/11/06 00:48:43;;;;;;;2.93;2.07;;;6.20;69.30;;;;;;5059919;28;20032;-81
2021/11/06 00:51:09;;;;;;;3.20;2.10;;;6.10;69.30;;;;;;5044726;28;20038;-81
2021/11/06 00:53:35;;;;;;;5.40;2.87;;;6.10;68.70;;;;;;5040119;28;20032;-81
2021/11/06 00:56:01;;;;;;;5.87;4.00;;;6.00;68.90;;;;;;5041397;28;20431;-81
2021/11/06 00:58:26;;;;;;;3.23;2.30;;;5.90;68.90;;;;;;5057776;28;20160;-81
2021/11/06 01:00:52;;;;;;;4.07;2.50;;;5.90;69.10;;;;;;5046572;28;20028;-81
2021/11/06 01:03:18;;;;;;;3.73;2.53;;;5.90;68.90;;;;;;5053275;28;20031;-81
2021/11/06 01:05:43;;;;;;;3.93;2.33;;;5.90;68.70;;;;;;5053646;28;20025;-81
2021/11/06 01:08:09;;;;;;;3.60;2.10;;;5.80;68.80;;;;;;5065453;28;20098;-81
2021/11/06 01:10:35;;;;;;;3.13;1.70;;;5.80;68.80;;;;;;5049858;28;20039;-81
2021/11/06 01:13:01;;;;;;;3.17;1.73;;;5.90;68.60;;;;;;5064603;28;20049;-81
2021/11/06 01:15:27;;;;;;;3.03;1.80;;;5.90;68.50;;;;;;5054684;28;20029;-81
2021/11/06 01:17:52;;;;;;;2.80;1.63;;;5.80;68.30;;;;;;5060482;28;20054;-81
2021/11/06 01:20:18;;;;;;;2.40;1.90;;;5.80;68.50;;;;;;5035010;28;20084;-81
2021/11/06 01:22:45;;;;;;;5.37;2.10;;;5.70;68.60;;;;;;5051088;28;20039;-81
2021/11/06 01:25:12;;;;;;;2.60;2.00;;;5.70;68.70;;;;;;5048558;28;20513;-81
2021/11/06 01:27:38;;;;;;;3.03;1.80;;;5.60;68.90;;;;;;5051756;28;20029;-80
2021/11/06 01:30:06;;;;;;;3.33;1.60;;;5.60;68.90;;;;;;5044324;28;20043;-81
2021/11/06 01:32:31;;;;;;;3.80;2.30;;;5.60;69.10;;;;;;5057696;28;20399;-81
2021/11/06 01:34:57;;;;;;;4.87;2.33;;;5.60;69.00;;;;;;5064040;28;20024;-81
2021/11/06 01:37:23;;;;;;;4.20;2.50;;;5.60;69.00;;;;;;5053485;28;20044;-81
2021/11/06 01:39:49;;;;;;;3.23;2.27;;;5.60;68.80;;;;;;5048265;28;20545;-81
2021/11/06 01:42:15;;;;;;;2.67;1.93;;;5.60;68.60;;;;;;5054731;28;20028;-81
2021/11/06 01:44:41;;;;;;;7.00;2.70;;;5.60;68.60;;;;;;5055522;28;20032;-81
2021/11/06 01:47:09;;;;;;;3.33;2.20;;;5.60;68.60;;;;;;5052791;28;20388;-81
2021/11/06 01:49:37;;;;;;;3.33;2.50;;;5.50;68.50;;;;;;5034291;28;20024;-81
2021/11/06 01:52:03;;;;;;;2.93;2.50;;;5.50;68.60;;;;;;5035327;28;20021;-81
2021/11/06 01:54:29;;;;;;;2.43;1.90;;;5.40;68.90;;;;;;5058932;28;20033;-81
2021/11/06 01:56:55;;;;;;;2.23;1.93;;;5.40;69.00;;;;;;5044489;28;20036;-81
2021/11/06 01:59:22;;;;;;;2.83;1.60;;;5.40;69.00;;;;;;5048705;28;20031;-81
2021/11/06 02:01:48;;;;;;;2.83;2.00;;;5.40;69.00;;;;;;5057924;28;20056;-81
2021/11/06 02:04:14;;;;;;;1.97;1.53;;;5.40;69.00;;;;;;5047191;28;20155;-81
2021/11/06 02:06:40;;;;;;;3.77;1.70;;;5.40;69.40;;;;;;5062714;28;20020;-81
2021/11/06 02:09:06;;;;;;;3.23;1.57;;;5.50;69.40;;;;;;5055158;28;20506;-81
2021/11/06 02:11:34;;;;;;;1.53;1.00;;;5.50;69.10;;;;;;5033509;28;20029;-81
2021/11/06 02:13:59;;;;;;;1.60;0.90;;;5.50;69.00;;;;;;5034665;28;20022;-81
2021/11/06 02:16:26;;;;;;;2.43;1.40;;;5.50;68.90;;;;;;5049797;28;20025;-81
2021/11/06 02:18:53;;;;;;;2.70;1.00;;;5.50;68.80;;;;;;5063513;28;20032;-81
2021/11/06 02:21:20;;;;;;;1.50;1.00;;;5.50;68.70;;;;;;5055791;28;20048;-81
2021/11/06 02:23:49;;;;;;;2.07;0.80;;;5.50;68.70;;;;;;5052350;28;20116;-81
2021/11/06 02:26:18;;;;;;;1.53;0.80;;;5.40;68.50;;;;;;5044945;28;20140;-81
2021/11/06 02:28:51;;;;;;;1.67;1.10;;;5.40;68.60;;;;;;5058575;28;20029;-81
2021/11/06 02:31:17;;;;;;;1.97;0.90;;;5.30;68.80;;;;;;5055069;28;20032;-81
2021/11/06 02:33:43;;;;;;;1.77;1.00;;;5.30;68.80;;;;;;5048104;28;20082;-81
2021/11/06 02:36:09;;;;;;;1.77;1.33;;;5.30;68.60;;;;;;5045497;28;20030;-81
2021/11/06 02:38:35;;;;;;;3.00;1.00;;;5.30;68.70;;;;;;5067582;28;20029;-81
2021/11/06 02:41:00;;;;;;;3.43;1.70;;;5.30;68.60;;;;;;5071854;28;20035;-80
2021/11/06 02:43:27;;;;;;;4.47;2.10;;;5.20;68.80;;;;;;5061271;28;20036;-81
2021/11/06 02:45:52;;;;;;;6.70;3.37;;;5.20;68.90;;;;;;5055860;28;20031;-81
2021/11/06 02:48:18;;;;;;;6.37;3.47;;;5.20;68.90;;;;;;5047242;28;20975;-81
2021/11/06 02:50:44;;;;;;;3.90;2.07;;;5.20;69.00;;;;;;5048286;28;20120;-81
2021/11/06 02:53:10;;;;;;;2.70;1.73;;;5.30;68.90;;;;;;5034603;28;20071;-81
2021/11/06 02:55:36;;;;;;;5.30;2.77;;;5.20;68.70;;;;;;5047100;28;20491;-81
2021/11/06 02:58:02;;;;;;;6.07;3.47;;;5.10;68.80;;;;;;5062614;28;20123;-81
2021/11/06 03:00:29;;;;;;;6.10;2.77;;;5.10;69.10;;;;;;5055200;28;20025;-81
2021/11/06 03:02:56;;;;;;;4.87;2.67;;;5.10;68.90;;;;;;5045856;28;20020;-81
2021/11/06 03:05:22;;;;;;;5.07;2.23;;;5.10;69.20;;;;;;5043732;28;20025;-81
2021/11/06 03:07:48;;;;;;;3.90;2.10;;;5.00;69.20;;;;;;5054529;28;20036;-81
2021/11/06 03:10:14;;;;;;;2.37;1.50;;;5.00;69.20;;;;;;5048387;28;20025;-81
2021/11/06 03:12:41;;;;;;;5.67;2.23;;;5.00;68.80;;;;;;5049374;28;20047;-81
2021/11/06 03:15:08;;;;;;;3.77;1.80;;;4.90;69.00;;;;;;5027272;28;20020;-81
2021/11/06 03:17:33;;;;;;;5.20;2.00;;;4.90;69.30;;;;;;5044205;28;20364;-81
2021/11/06 03:19:59;;;;;;;4.43;2.10;;;5.00;69.20;;;;;;5068758;28;20031;-81
2021/11/06 03:22:25;;;;;;;6.10;2.33;;;4.90;69.10;;;;;;5037863;28;20024;-81
2021/11/06 03:24:51;;;;;;;3.10;2.37;;;5.00;69.00;;;;;;5046800;28;20028;-81
2021/11/06 03:27:16;;;;;;;2.13;1.60;;;4.90;68.80;;;;;;5040690;28;20033;-81
2021/11/06 03:29:42;;;;;;;3.53;1.90;;;4.90;69.10;;;;;;5062935;28;20065;-81
2021/11/06 03:32:08;;;;;;;2.23;1.50;;;4.90;69.10;;;;;;5032227;28;20457;-81
2021/11/06 03:34:35;;;;;;;5.23;1.40;;;4.90;69.00;;;;;;5042777;28;20033;-81
2021/11/06 03:37:01;;;;;;;2.03;1.10;;;4.80;69.10;;;;;;5064042;28;20034;-81
2021/11/06 03:39:27;;;;;;;2.43;1.37;;;4.80;69.10;;;;;;5063283;28;20029;-81
2021/11/06 03:41:53;;;;;;;5.27;2.83;;;4.80;69.50;;;;;;5050399;28;20047;-81
2021/11/06 03:44:19;;;;;;;6.43;4.50;;;4.80;69.50;;;;;;5061931;28;20476;-81
2021/11/06 03:46:45;;;;;;;6.63;4.73;;;4.80;69.40;;;;;;5039996;28;20131;-81
2021/11/06 03:49:11;;;;;;;4.73;3.70;;;4.80;69.50;;;;;;5055400;28;20036;-81
2021/11/06 03:51:37;;;;;;;2.27;1.80;;;4.80;69.30;;;;;;5054318;28;20439;-81
2021/11/06 03:54:03;;;;;;;4.17;1.50;;;4.90;69.40;;;;;;5067627;28;20032;-81
2021/11/06 03:56:29;;;;;;;3.47;1.90;;;4.90;69.40;;;;;;5042792;28;20043;-81
2021/11/06 03:58:55;;;;;;;4.83;1.70;;;4.90;69.30;;;;;;5053327;28;20020;-81
2021/11/06 04:01:21;;;;;;;4.97;2.20;;;4.90;69.20;;;;;;5039075;28;20051;-81
2021/11/06 04:03:47;;;;;;;1.80;0.93;;;4.90;69.40;;;;;;5050988;28;20029;-81
2021/11/06 04:06:14;;;;;;;2.50;1.30;;;4.90;69.30;;;;;;5040974;28;20403;-81
2021/11/06 04:08:40;;;;;;;2.43;1.23;;;5.00;69.20;;;;;;5036405;28;20026;-81
2021/11/06 04:11:06;;;;;;;3.73;1.63;;;4.90;68.90;;;;;;5051485;28;20029;-81
2021/11/06 04:13:32;;;;;;;2.00;0.93;;;4.80;69.00;;;;;;5050795;28;20495;-81
2021/11/06 04:15:58;;;;;;;3.37;1.10;;;4.80;69.20;;;;;;5065027;28;20044;-81
2021/11/06 04:18:24;;;;;;;1.30;0.93;;;4.80;69.40;;;;;;5061814;28;20029;-81
2021/11/06 04:20:49;;;;;;;2.40;0.90;;;4.80;69.20;;;;;;5038654;28;20032;-81
2021/11/06 04:23:15;;;;;;;3.23;1.07;;;4.80;69.50;;;;;;5033575;28;20040;-81
2021/11/06 04:25:41;;;;;;;11.20;5.90;;;4.80;69.20;;;;;;5058464;28;20090;-81
2021/11/06 04:28:07;;;;;;;16.73;8.10;;;4.80;69.20;;;;;;5060857;28;20049;-81
2021/11/06 04:30:33;;;;;;;10.70;5.10;;;4.80;69.10;;;;;;5065241;28;20047;-81
2021/11/06 04:32:59;;;;;;;4.20;2.43;;;4.80;68.90;;;;;;5058398;28;20111;-81
2021/11/06 04:35:24;;;;;;;3.97;1.93;;;4.80;69.00;;;;;;5064391;28;20625;-81
2021/11/06 04:37:50;;;;;;;2.13;1.10;;;4.70;68.90;;;;;;5056567;28;20071;-81
2021/11/06 04:40:16;;;;;;;3.17;1.30;;;4.70;69.00;;;;;;5058346;28;20028;-81
2021/11/06 04:42:42;;;;;;;2.17;1.07;;;4.60;69.10;;;;;;5024200;28;20087;-81
2021/11/06 04:45:10;;;;;;;2.90;1.13;;;4.70;69.20;;;;;;5043168;28;20029;-81
2021/11/06 04:47:36;;;;;;;1.50;0.93;;;4.70;69.20;;;;;;5047666;28;20032;-81
2021/11/06 04:50:04;;;;;;;4.17;2.03;;;4.70;69.20;;;;;;5047247;28;20043;-81
2021/11/06 04:52:30;;;;;;;1.37;1.07;;;4.70;69.30;;;;;;5053020;28;20040;-81
2021/11/06 04:54:56;;;;;;;2.03;1.10;;;4.70;69.20;;;;;;5053751;28;20021;-81
2021/11/06 04:57:22;;;;;;;2.07;0.97;;;4.60;69.00;;;;;;5047069;28;20120;-81
2021/11/06 04:59:48;;;;;;;2.17;0.80;;;4.60;69.10;;;;;;5053434;28;20451;-81
2021/11/06 05:02:13;;;;;;;3.70;1.20;;;4.60;69.40;;;;;;5059427;28;20068;-81
2021/11/06 05:04:39;;;;;;;2.60;1.00;;;4.60;69.30;;;;;;5060288;28;20034;-81
2021/11/06 05:07:05;;;;;;;2.53;1.23;;;4.60;69.20;;;;;;5055529;28;20035;-81
2021/11/06 05:09:32;;;;;;;2.53;1.00;;;4.60;69.20;;;;;;5065988;28;20024;-81
2021/11/06 05:11:58;;;;;;;4.97;1.77;;;4.60;69.00;;;;;;5063424;28;20036;-81
2021/11/06 05:14:24;;;;;;;3.70;2.03;;;4.60;69.00;;;;;;5067122;28;20032;-81
2021/11/06 05:16:50;;;;;;;3.93;1.97;;;4.60;68.80;;;;;;5047888;28;20028;-81
2021/11/06 05:19:16;;;;;;;7.80;2.37;;;4.50;68.80;;;;;;5060265;28;20021;-81
2021/11/06 05:21:44;;;;;;;2.80;1.50;;;4.40;69.20;;;;;;5051439;28;20052;-81
2021/11/06 05:24:10;;;;;;;1.87;1.30;;;4.40;69.30;;;;;;5052778;28;20039;-81
2021/11/06 05:26:38;;;;;;;2.97;1.57;;;4.40;69.40;;;;;;5052453;28;20049;-81
2021/11/06 05:29:06;;;;;;;2.83;1.37;;;4.40;69.60;;;;;;5053193;28;20021;-81
2021/11/06 05:31:33;;;;;;;1.97;1.03;;;4.40;69.60;;;;;;5031960;28;20079;-81
2021/11/06 05:34:00;;;;;;;1.90;1.13;;;4.50;69.40;;;;;;5059427;28;20460;-81
2021/11/06 05:36:27;;;;;;;3.10;1.13;;;4.40;69.10;;;;;;5052962;28;20369;-81
2021/11/06 05:38:53;;;;;;;2.00;1.60;;;4.30;69.20;;;;;;5065050;28;20021;-80
2021/11/06 05:41:19;;;;;;;3.03;1.47;;;4.30;69.40;;;;;;5042457;28;20040;-81
2021/11/06 05:43:45;;;;;;;7.70;1.17;;;4.30;69.60;;;;;;5055208;28;20033;-81
2021/11/06 05:46:11;;;;;;;2.23;1.40;;;4.30;69.40;;;;;;5062977;28;20033;-81
2021/11/06 05:48:37;;;;;;;6.43;1.70;;;4.30;69.70;;;;;;5056736;28;20055;-81
2021/11/06 05:51:02;;;;;;;5.83;2.27;;;4.30;69.60;;;;;;5072047;28;20380;-81
2021/11/06 05:53:28;;;;;;;5.23;2.70;;;4.30;69.60;;;;;;5035638;28;20490;-81
2021/11/06 05:55:54;;;;;;;4.63;2.70;;;4.30;69.60;;;;;;5042248;28;20028;-81
2021/11/06 05:58:20;;;;;;;6.03;3.33;;;4.30;69.50;;;;;;5040856;28;20031;-81
2021/11/06 06:00:46;;;;;;;3.80;2.20;;;4.30;69.50;;;;;;5045952;28;20033;-81
2021/11/06 06:03:11;;;;;;;6.60;2.40;;;4.40;69.50;;;;;;5061232;28;20029;-81
2021/11/06 06:05:37;;;;;;;3.87;2.33;;;4.30;69.40;;;;;;5060334;28;20032;-81
2021/11/06 06:08:03;;;;;;;3.00;1.90;;;4.30;69.30;;;;;;5038787;28;20052;-81
2021/11/06 06:10:29;;;;;;;6.50;2.77;;;4.30;69.30;;;;;;5046844;28;20036;-81
2021/11/06 06:12:55;;;;;;;6.83;2.47;;;4.30;69.20;;;;;;5050498;28;20048;-81
2021/11/06 06:15:21;;;;;;;7.57;3.20;;;4.40;69.70;;;;;;5054208;28;20025;-81
2021/11/06 06:17:48;;;;;;;5.57;3.57;;;4.40;68.90;;;;;;5035770;28;20124;-81
2021/11/06 06:20:14;;;;;;;12.47;7.13;;;4.30;69.00;;;;;;5044131;28;20036;-81
2021/11/06 06:22:40;;;;;;;15.23;8.87;;;4.30;68.90;;;;;;5039089;28;20124;-81
2021/11/06 06:25:08;;;;;;;8.07;4.40;;;4.30;68.80;;;;;;5059629;28;20100;-81
2021/11/06 06:27:34;;;;;;;6.70;6.00;;;4.30;68.70;;;;;;5057357;28;20072;-81
2021/11/06 06:30:00;;;;;;;11.00;5.40;;;4.30;69.00;;;;;;5034205;28;20051;-81
2021/11/06 06:32:26;;;;;;;8.30;5.73;;;4.30;69.00;;;;;;5056345;28;20025;-81
2021/11/06 06:34:51;;;;;;;10.10;5.70;;;4.30;68.90;;;;;;5045633;28;20058;-81
2021/11/06 06:37:17;;;;;;;13.63;7.60;;;4.30;68.80;;;;;;5062392;28;20401;-80
2021/11/06 06:39:43;;;;;;;12.30;6.70;;;4.40;68.80;;;;;;5055886;28;20421;-81
2021/11/06 06:42:09;;;;;;;11.97;6.43;;;4.40;68.70;;;;;;5045447;28;20064;-82
2021/11/06 06:44:34;;;;;;;10.83;5.27;;;4.40;68.70;;;;;;5073629;28;20230;-81
2021/11/06 06:47:01;;;;;;;7.67;4.90;;;4.40;68.60;;;;;;5071900;28;20040;-81
2021/11/06 06:49:27;;;;;;;8.53;3.80;;;4.40;69.10;;;;;;5072563;28;20047;-81
2021/11/06 06:51:52;;;;;;;13.03;5.00;;;4.50;68.50;;;;;;5036508;28;20022;-81
2021/11/06 06:54:18;;;;;;;16.80;8.23;;;4.50;68.40;;;;;;5032054;28;20028;-81
2021/11/06 06:56:44;;;;;;;20.23;8.57;;;4.40;68.40;;;;;;5068528;28;20035;-81
2021/11/06 06:59:11;;;;;;;16.27;8.57;;;4.40;68.50;;;;;;5056853;28;20021;-81
2021/11/06 07:01:38;;;;;;;15.63;7.70;;;4.40;68.40;;;;;;5028658;28;20092;-81
2021/11/06 07:04:04;;;;;;;15.60;7.83;;;4.40;68.70;;;;;;5032518;28;20060;-81
2021/11/06 07:06:29;;;;;;;16.40;9.80;;;4.40;68.70;;;;;;5068924;28;20068;-81
2021/11/06 07:08:57;;;;;;;17.87;7.30;;;4.40;68.60;;;;;;5047528;28;20029;-81
2021/11/06 07:11:22;;;;;;;10.50;6.00;;;4.40;68.50;;;;;;5038319;28;20029;-81
2021/11/06 07:13:49;;;;;;;10.20;5.63;;;4.40;68.50;;;;;;5031284;28;20563;-81
2021/11/06 07:16:14;;;;;;;12.83;8.10;;;4.40;68.70;;;;;;5074219;28;20028;-81
2021/11/06 07:18:41;;;;;;;13.90;7.90;;;4.40;68.80;;;;;;5073042;28;20037;-81
2021/11/06 07:21:07;;;;;;;17.37;8.37;;;4.40;68.50;;;;;;5067601;28;20046;-81
2021/11/06 07:23:33;;;;;;;12.57;6.93;;;4.40;68.40;;;;;;5073242;28;20029;-81
2021/11/06 07:26:03;;;;;;;12.83;7.67;;;4.40;68.40;;;;;;5039874;28;20040;-81
2021/11/06 07:28:30;;;;;;;13.67;8.60;;;4.40;68.40;;;;;;5051877;28;20111;-81
2021/11/06 07:30:56;;;;;;;15.83;8.47;;;4.40;68.40;;;;;;5052735;28;20032;-81
2021/11/06 07:33:22;;;;;;;19.47;7.57;;;4.40;68.50;;;;;;5048187;28;20027;-81
2021/11/06 07:35:49;;;;;;;14.23;7.37;;;4.40;68.60;;;;;;5046515;28;20037;-81
2021/11/06 07:38:14;;;;;;;12.57;7.23;;;4.40;68.60;;;;;;5052828;28;20480;-81
2021/11/06 07:40:41;;;;;;;11.80;6.80;;;4.40;69.00;;;;;;5042686;28;20085;-81
2021/11/06 07:43:06;;;;;;;16.40;9.30;;;4.40;68.80;;;;;;5053682;28;20425;-81
2021/11/06 07:45:35;;;;;;;15.57;9.17;;;4.50;68.70;;;;;;5058648;28;20032;-80
2021/11/06 07:48:02;;;;;;;10.57;7.53;;;4.40;68.50;;;;;;5054262;28;20029;-81
2021/11/06 07:50:28;;;;;;;15.17;9.23;;;4.40;68.80;;;;;;5046921;28;20060;-81
2021/11/06 07:52:53;;;;;;;17.30;7.20;;;4.40;68.90;;;;;;5055395;28;20060;-81
2021/11/06 07:55:19;;;;;;;17.57;10.13;;;4.40;69.10;;;;;;5049499;28;20024;-81
2021/11/06 07:57:46;;;;;;;18.20;10.50;;;4.40;69.10;;;;;;5050869;28;20151;-81
2021/11/06 08:00:17;;;;;;;19.50;12.77;;;4.50;69.30;;;;;;5050914;28;20033;-81
2021/11/06 08:02:43;;;;;;;19.07;8.23;;;4.60;69.40;;;;;;5028917;28;20032;-81
2021/11/06 08:05:11;;;;;;;12.83;6.07;;;4.70;69.30;;;;;;5037636;28;20033;-81
2021/11/06 08:07:37;;;;;;;10.10;5.57;;;4.80;69.20;;;;;;5037086;28;20145;-81
2021/11/06 08:10:05;;;;;;;12.70;5.80;;;4.80;69.20;;;;;;5039008;28;20057;-81
2021/11/06 08:12:31;;;;;;;7.87;5.17;;;4.80;69.30;;;;;;5055532;28;20076;-81
2021/11/06 08:14:57;;;;;;;8.10;4.87;;;4.90;69.30;;;;;;5054255;28;20028;-81
2021/11/06 08:17:23;;;;;;;11.63;5.33;;;4.90;69.40;;;;;;5048451;28;20025;-81
2021/11/06 08:19:50;;;;;;;9.60;5.47;;;5.00;69.40;;;;;;5039874;28;20083;-81
2021/11/06 08:22:16;;;;;;;6.87;3.97;;;5.10;69.50;;;;;;5034526;28;20376;-81
2021/11/06 08:24:41;;;;;;;6.87;4.50;;;5.20;69.50;;;;;;5039674;28;20199;-81
2021/11/06 08:27:08;;;;;;;6.23;3.80;;;5.30;69.40;;;;;;5031648;28;20696;-81
2021/11/06 08:29:35;;;;;;;6.50;3.83;;;5.60;69.50;;;;;;5029015;28;20075;-81
2021/11/06 08:32:01;;;;;;;7.77;3.77;;;5.80;69.40;;;;;;5033924;28;20082;-82
2021/11/06 08:34:32;;;;;;;9.27;4.67;;;6.10;69.30;;;;;;5026921;28;20067;-81
2021/11/06 08:36:59;;;;;;;9.70;5.53;;;6.40;69.40;;;;;;5050940;28;20025;-81
2021/11/06 08:39:25;;;;;;;11.30;6.17;;;6.90;69.80;;;;;;5032253;28;20052;-81
2021/11/06 08:41:52;;;;;;;7.20;5.10;;;7.40;70.00;;;;;;5040801;28;20374;-81
2021/11/06 08:44:19;;;;;;;6.47;4.33;;;7.90;68.40;;;;;;5029428;28;20025;-82
2021/11/06 08:46:47;;;;;;;11.17;5.00;;;8.30;66.60;;;;;;5028244;28;20029;-81
2021/11/06 08:49:13;;;;;;;4.90;3.40;;;8.30;65.10;;;;;;5020750;28;20021;-82
2021/11/06 08:51:44;;;;;;;6.43;3.93;;;8.30;64.20;;;;;;5047727;28;20415;-81
2021/11/06 08:54:10;;;;;;;6.70;3.80;;;8.20;63.70;;;;;;5046735;28;20024;-81
2021/11/06 08:56:36;;;;;;;4.93;3.27;;;8.00;63.60;;;;;;5027274;28;20753;-81
2021/11/06 08:59:02;;;;;;;5.30;3.43;;;7.90;63.60;;;;;;5026908;28;20025;-81
2021/11/06 09:01:29;;;;;;;5.07;2.80;;;8.00;63.50;;;;;;5024264;28;20388;-81
2021/11/06 09:03:55;;;;;;;4.23;2.83;;;8.00;63.20;;;;;;5033981;28;20025;-81
2021/11/06 09:06:21;;;;;;;8.00;2.87;;;8.10;62.90;;;;;;5052629;28;20108;-81
2021/11/06 09:08:49;;;;;;;5.73;2.73;;;8.10;62.70;;;;;;5039945;28;20116;-81
2021/11/06 09:11:16;;;;;;;4.83;2.73;;;8.20;62.40;;;;;;5027232;28;20055;-82
2021/11/06 09:13:49;;;;;;;5.50;3.27;;;8.30;62.10;;;;;;5032507;28;20722;-82
2021/11/06 09:16:15;;;;;;;5.13;2.57;;;8.50;62.10;;;;;;5031980;28;20088;-81
2021/11/06 09:18:41;;;;;;;6.30;3.73;;;8.70;61.30;;;;;;5048965;28;20023;-82
2021/11/06 09:21:10;;;;;;;5.10;3.70;;;8.80;60.70;;;;;;5053113;28;20060;-82
2021/11/06 09:23:37;;;;;;;12.80;9.97;;;8.90;60.60;;;;;;5034334;28;20052;-82
2021/11/06 09:26:03;;;;;;;5.30;3.47;;;8.90;59.90;;;;;;5037558;28;20376;-82
2021/11/06 09:28:29;;;;;;;4.60;2.70;;;9.00;59.60;;;;;;5015936;28;20072;-82
2021/11/06 09:30:57;;;;;;;3.97;3.07;;;9.20;59.20;;;;;;5012733;28;20030;-82
2021/11/06 09:33:23;;;;;;;6.03;2.70;;;9.30;58.90;;;;;;5025100;28;20172;-82
2021/11/06 09:35:49;;;;;;;7.43;2.30;;;9.40;58.70;;;;;;5022495;28;20136;-82
2021/11/06 09:38:14;;;;;;;4.23;1.80;;;9.60;57.80;;;;;;5020905;28;20021;-82
2021/11/06 09:40:40;;;;;;;3.07;1.57;;;9.70;57.10;;;;;;5027700;28;20033;-82
2021/11/06 09:43:06;;;;;;;3.20;2.10;;;9.80;56.50;;;;;;5034966;28;20021;-82
2021/11/06 09:45:32;;;;;;;3.47;1.97;;;9.90;56.40;;;;;;5018563;28;20025;-82
2021/11/06 09:47:58;;;;;;;3.17;1.70;;;9.90;55.90;;;;;;5020848;28;20509;-82
2021/11/06 09:50:24;;;;;;;2.50;1.73;;;10.10;55.60;;;;;;5030418;28;20692;-82
2021/11/06 09:52:53;;;;;;;4.03;2.00;;;10.30;55.10;;;;;;5018498;28;20021;-82
2021/11/06 09:55:22;;;;;;;2.33;1.57;;;10.50;54.50;;;;;;5027688;28;20372;-82
2021/11/06 09:57:48;;;;;;;3.00;2.40;;;10.60;54.20;;;;;;5009879;28;20030;-83
2021/11/06 10:00:16;;;;;;;2.50;2.10;;;10.70;53.90;;;;;;5038784;28;20029;-82
2021/11/06 10:02:42;;;;;;;2.73;1.47;;;10.90;53.60;;;;;;5026487;28;20049;-82
2021/11/06 10:05:09;;;;;;;3.80;2.03;;;11.00;53.20;;;;;;5015678;28;20109;-82
2021/11/06 10:07:38;;;;;;;2.60;1.90;;;11.20;52.40;;;;;;5020024;28;20095;-82
2021/11/06 10:10:16;;;;;;;3.73;2.40;;;11.40;52.00;;;;;;5033607;28;20029;-82
2021/11/06 10:12:59;;;;;;;4.63;1.90;;;11.60;51.50;;;;;;5029245;28;20068;-82
2021/11/06 10:15:26;;;;;;;3.50;1.80;;;11.80;50.90;;;;;;5029241;28;20485;-83
2021/11/06 10:17:52;;;;;;;4.53;1.70;;;11.90;50.80;;;;;;5014660;28;20025;-83
2021/11/06 10:20:28;;;;;;;2.63;1.63;;;11.90;50.20;;;;;;5032501;28;20026;-82
2021/11/06 10:22:55;;;;;;;2.13;1.50;;;11.90;49.30;;;;;;5022511;28;20547;-83
2021/11/06 10:25:22;;;;;;;2.17;1.40;;;11.90;49.20;;;;;;5012895;28;20481;-83
2021/11/06 10:27:51;;;;;;;3.03;1.00;;;12.00;48.70;;;;;;5005864;28;20125;-82
2021/11/06 10:30:26;;;;;;;4.10;2.00;;;12.20;48.20;;;;;;5032066;28;20030;-83
2021/11/06 10:33:05;;;;;;;3.03;1.47;;;12.20;47.40;;;;;;5002755;28;20120;-82
2021/11/06 10:35:35;;;;;;;2.60;1.20;;;12.30;47.30;;;;;;5016926;28;20033;-82
2021/11/06 10:38:10;;;;;;;4.20;1.40;;;12.50;47.30;;;;;;5012545;28;20033;-82
2021/11/06 10:40:41;;;;;;;1.50;1.00;;;12.70;47.10;;;;;;5016580;28;20120;-82
2021/11/06 10:43:11;;;;;;;1.83;1.30;;;12.70;46.90;;;;;;5026853;28;20091;-83
2021/11/06 10:45:42;;;;;;;3.13;1.43;;;12.80;46.70;;;;;;5037393;28;20037;-83
2021/11/06 10:48:15;;;;;;;4.63;1.57;;;12.80;46.50;;;;;;5033128;28;20029;-83
2021/11/06 10:50:58;;;;;;;4.03;1.60;;;12.90;46.30;;;;;;5014276;28;20032;-82
2021/11/06 10:53:30;;;;;;;2.85;1.55;;;12.80;45.90;;;;;;5029396;28;20112;-83
2021/11/06 10:55:57;;;;;;;2.67;1.77;;;12.80;46.30;;;;;;5048883;28;20477;-82
2021/11/06 10:58:28;;;;;;;3.00;1.60;;;12.90;46.40;;;;;;5016544;28;20292;-82
2021/11/06 11:01:07;;;;;;;4.13;1.97;;;12.90;46.30;;;;;;5030848;28;20046;-83
2021/11/06 11:03:38;;;;;;;5.63;2.20;;;13.00;45.70;;;;;;5029429;28;20031;-82
2021/11/06 11:06:12;;;;;;;2.17;1.10;;;13.00;45.80;;;;;;5018506;28;20466;-83
2021/11/06 11:08:57;;;;;;;2.97;1.63;;;13.20;46.00;;;;;;5028207;28;20040;-82
2021/11/06 11:11:25;;;;;;;5.63;2.30;;;13.30;45.30;;;;;;5011215;28;20060;-83
2021/11/06 11:14:12;;;;;;;4.63;2.20;;;13.40;45.80;;;;;;5034533;28;20499;-83
2021/11/06 11:16:47;;;;;;;9.00;2.50;;;13.60;45.10;;;;;;4998181;28;20033;-82
2021/11/06 11:19:13;;;;;;;5.63;1.90;;;13.60;45.20;;;;;;5025894;28;20026;-82
2021/11/06 11:21:44;;;;;;;5.00;2.30;;;13.60;45.10;;;;;;5049027;28;20044;-83
2021/11/06 11:24:12;;;;;;;3.00;2.23;;;13.70;45.20;;;;;;4997061;28;20026;-83
2021/11/06 11:26:51;;;;;;;2.77;2.00;;;13.80;45.10;;;;;;4996720;28;20046;-83
2021/11/06 11:29:24;;;;;;;6.67;2.10;;;13.80;44.40;;;;;;5013972;28;20022;-83
2021/11/06 11:31:51;;;;;;;2.90;2.13;;;13.60;44.30;;;;;;5012891;28;20156;-82
2021/11/06 11:34:17;;;;;;;3.20;2.13;;;13.70;44.40;;;;;;5025167;28;20025;-82
2021/11/06 11:36:44;;;;;;;2.20;1.60;;;13.70;44.10;;;;;;5027716;28;20021;-82
2021/11/06 11:39:14;;;;;;;4.40;2.10;;;13.70;44.00;;;;;;5017379;28;20024;-82
2021/11/06 11:41:49;;;;;;;2.83;2.20;;;13.70;44.10;;;;;;5015351;28;20397;-83
2021/11/06 11:44:52;;;;;;;3.03;1.97;;;13.70;44.40;;;;;;5033084;28;20033;-83
2021/11/06 11:47:40;;;;;;;4.97;2.10;;;13.70;43.90;;;;;;5012083;28;20116;-83
2021/11/06 11:50:13;;;;;;;3.63;2.30;;;13.70;44.10;;;;;;5009042;28;20044;-83
2021/11/06 11:52:42;;;;;;;3.27;2.30;;;13.60;44.40;;;;;;5014942;28;20017;-83
2021/11/06 11:55:19;;;;;;;9.33;2.30;;;13.70;44.30;;;;;;5014383;28;20381;-82
2021/11/06 11:58:24;;;;;;;6.70;3.17;;;13.70;44.20;;;;;;5021059;28;20022;-83
2021/11/06 12:01:00;;;;;;;2.37;2.03;;;13.60;44.20;;;;;;5022774;28;20029;-82
2021/11/06 12:03:29;;;;;;;5.13;2.53;;;13.50;44.30;;;;;;5001674;28;20029;-82
2021/11/06 12:05:55;;;;;;;5.83;2.37;;;13.40;44.30;;;;;;5015125;28;20029;-83
2021/11/06 12:08:21;;;;;;;4.90;2.33;;;13.30;44.40;;;;;;5025794;28;20025;-81
2021/11/06 12:10:58;;;;;;;3.83;2.03;;;13.30;44.40;;;;;;5003576;28;20084;-83
2021/11/06 12:13:27;;;;;;;2.67;2.07;;;13.30;44.20;;;;;;5028222;28;20021;-81
2021/11/06 12:16:11;;;;;;;3.23;2.03;;;13.10;44.10;;;;;;5011906;28;20026;-82
2021/11/06 12:18:51;;;;;;;5.10;2.87;;;13.00;44.00;;;;;;5013226;28;20024;-82
2021/11/06 12:21:18;;;;;;;3.10;2.03;;;13.00;44.20;;;;;;5028518;28;20040;-82
2021/11/06 12:23:49;;;;;;;2.93;2.13;;;13.10;44.20;;;;;;5024910;28;20424;-82
2021/11/06 12:26:42;;;;;;;2.57;1.90;;;13.00;44.00;;;;;;5014507;28;20512;-81
2021/11/06 12:29:10;;;;;;;;;;;13.00;43.70;;;;;;5026417;28;20048;-83
2021/11/06 12:31:47;;;;;;;2.63;1.77;;;13.00;44.00;;;;;;5025226;28;19913;-83
2021/11/06 12:34:53;;;;;;;2.17;1.97;;;12.90;43.90;;;;;;5044494;28;20479;-83
2021/11/06 12:37:38;;;;;;;7.13;2.13;;;12.90;44.10;;;;;;5059845;28;20036;-82
2021/11/06 12:40:25;;;;;;;3.67;1.97;;;12.80;44.10;;;;;;5054166;28;20558;-82
2021/11/06 12:43:07;;;;;;;3.47;1.80;;;12.90;43.90;;;;;;5051746;28;20025;-82
2021/11/06 12:45:33;;;;;;;4.82;1.67;;;12.90;43.60;;;;;;5054813;28;20487;-82
2021/11/06 12:48:14;;;;;;;2.33;1.93;;;12.80;44.40;;;;;;5048111;28;20025;-82
2021/11/06 12:50:46;;;;;;;2.03;1.60;;;12.80;43.30;;;;;;5039562;28;20363;-82
2021/11/06 12:53:26;;;;;;;2.90;1.50;;;12.80;43.40;;;;;;5053285;28;20052;-82
2021/11/06 12:56:15;;;;;;;4.40;2.90;;;12.80;43.30;;;;;;5037614;28;20020;-82
2021/11/06 12:58:43;;;;;;;4.83;2.20;;;12.70;43.30;;;;;;5046016;28;20540;-82